sensor_id;sensor_type;location;lat;lon;timestamp;P1;durP1;ratioP1;P2;durP2;ratioP2
8007;SDS011;4049;49.468;11.200;2023-03-05T00:01:21;25.63;;;11.57;;
8007;SDS011;4049;49.468;11.200;2023-03-05T00:03:59;32.00;;;12.63;;
8007;SDS011;4049;49.468;11.200;2023-03-05T00:06:28;31.90;;;12.80;;
8007;SDS011;4049;49.468;11.200;2023-03-05T00:08:56;28.17;;;11.83;;
8007;SDS011;4049;49.468;11.200;2023-03-05T00:11:23;26.93;;;12.00;;
8007;SDS011;4049;49.468;11.200;2023-03-05T00:13:53;28.87;;;12.67;;
8007;SDS011;4049;49.468;11.200;2023-03-05T00:16:21;28.53;;;11.20;;
8007;SDS011;4049;49.468;11.200;2023-03-05T00:18:50;29.67;;;11.60;;
8007;SDS011;4049;49.468;11.200;2023-03-05T00:21:20;26.37;;;11.43;;
8007;SDS011;4049;49.468;11.200;2023-03-05T00:23:49;29.57;;;12.90;;
8007;SDS011;4049;49.468;11.200;2023-03-05T00:26:19;28.43;;;11.73;;
8007;SDS011;4049;49.468;11.200;2023-03-05T00:28:47;27.83;;;12.60;;
8007;SDS011;4049;49.468;11.200;2023-03-05T00:31:15;43.53;;;17.23;;
8007;SDS011;4049;49.468;11.200;2023-03-05T00:33:43;34.70;;;15.27;;
8007;SDS011;4049;49.468;11.200;2023-03-05T00:36:10;38.10;;;15.30;;
8007;SDS011;4049;49.468;11.200;2023-03-05T00:38:38;36.93;;;16.00;;
8007;SDS011;4049;49.468;11.200;2023-03-05T00:41:05;33.43;;;15.23;;
8007;SDS011;4049;49.468;11.200;2023-03-05T00:43:33;36.87;;;14.50;;
8007;SDS011;4049;49.468;11.200;2023-03-05T00:46:00;27.73;;;13.17;;
8007;SDS011;4049;49.468;11.200;2023-03-05T00:48:27;39.50;;;15.07;;
8007;SDS011;4049;49.468;11.200;2023-03-05T00:50:54;29.20;;;13.17;;
8007;SDS011;4049;49.468;11.200;2023-03-05T00:53:21;33.83;;;13.40;;
8007;SDS011;4049;49.468;11.200;2023-03-05T00:55:49;31.90;;;13.00;;
8007;SDS011;4049;49.468;11.200;2023-03-05T00:58:16;26.90;;;12.20;;
8007;SDS011;4049;49.468;11.200;2023-03-05T01:00:43;29.37;;;12.47;;
8007;SDS011;4049;49.468;11.200;2023-03-05T01:03:10;25.83;;;11.93;;
8007;SDS011;4049;49.468;11.200;2023-03-05T01:05:36;35.87;;;14.37;;
8007;SDS011;4049;49.468;11.200;2023-03-05T01:08:03;30.40;;;13.03;;
8007;SDS011;4049;49.468;11.200;2023-03-05T01:10:30;36.60;;;14.63;;
8007;SDS011;4049;49.468;11.200;2023-03-05T01:12:59;32.43;;;14.00;;
8007;SDS011;4049;49.468;11.200;2023-03-05T01:15:26;31.60;;;13.73;;
8007;SDS011;4049;49.468;11.200;2023-03-05T01:17:55;37.80;;;14.80;;
8007;SDS011;4049;49.468;11.200;2023-03-05T01:20:22;33.90;;;14.13;;
8007;SDS011;4049;49.468;11.200;2023-03-05T01:22:49;36.13;;;14.47;;
8007;SDS011;4049;49.468;11.200;2023-03-05T01:25:16;35.53;;;14.77;;
8007;SDS011;4049;49.468;11.200;2023-03-05T01:27:43;44.00;;;14.93;;
8007;SDS011;4049;49.468;11.200;2023-03-05T01:30:12;34.67;;;14.17;;
8007;SDS011;4049;49.468;11.200;2023-03-05T01:32:39;38.17;;;15.17;;
8007;SDS011;4049;49.468;11.200;2023-03-05T01:35:07;31.07;;;13.73;;
8007;SDS011;4049;49.468;11.200;2023-03-05T01:37:40;39.73;;;14.80;;
8007;SDS011;4049;49.468;11.200;2023-03-05T01:40:07;31.63;;;13.60;;
8007;SDS011;4049;49.468;11.200;2023-03-05T01:42:36;31.60;;;14.27;;
8007;SDS011;4049;49.468;11.200;2023-03-05T01:45:04;31.03;;;12.87;;
8007;SDS011;4049;49.468;11.200;2023-03-05T01:47:35;29.67;;;13.60;;
8007;SDS011;4049;49.468;11.200;2023-03-05T01:50:02;33.77;;;13.33;;
8007;SDS011;4049;49.468;11.200;2023-03-05T01:52:31;32.10;;;14.17;;
8007;SDS011;4049;49.468;11.200;2023-03-05T01:55:00;34.20;;;14.37;;
8007;SDS011;4049;49.468;11.200;2023-03-05T01:57:30;32.87;;;13.10;;
8007;SDS011;4049;49.468;11.200;2023-03-05T02:00:05;27.17;;;12.70;;
8007;SDS011;4049;49.468;11.200;2023-03-05T02:02:40;34.07;;;14.33;;
8007;SDS011;4049;49.468;11.200;2023-03-05T02:05:09;34.27;;;14.10;;
8007;SDS011;4049;49.468;11.200;2023-03-05T02:07:37;32.40;;;14.07;;
8007;SDS011;4049;49.468;11.200;2023-03-05T02:10:13;33.87;;;13.57;;
8007;SDS011;4049;49.468;11.200;2023-03-05T02:12:41;33.17;;;13.30;;
8007;SDS011;4049;49.468;11.200;2023-03-05T02:15:08;30.40;;;13.70;;
8007;SDS011;4049;49.468;11.200;2023-03-05T02:17:36;31.37;;;13.77;;
8007;SDS011;4049;49.468;11.200;2023-03-05T02:20:06;40.40;;;14.33;;
8007;SDS011;4049;49.468;11.200;2023-03-05T02:22:37;31.70;;;13.07;;
8007;SDS011;4049;49.468;11.200;2023-03-05T02:25:11;33.37;;;13.70;;
8007;SDS011;4049;49.468;11.200;2023-03-05T02:27:39;32.90;;;12.83;;
8007;SDS011;4049;49.468;11.200;2023-03-05T02:30:08;35.77;;;14.77;;
8007;SDS011;4049;49.468;11.200;2023-03-05T02:32:36;33.90;;;12.90;;
8007;SDS011;4049;49.468;11.200;2023-03-05T02:35:03;29.10;;;13.47;;
8007;SDS011;4049;49.468;11.200;2023-03-05T02:37:31;32.30;;;13.30;;
8007;SDS011;4049;49.468;11.200;2023-03-05T02:39:59;32.23;;;13.87;;
8007;SDS011;4049;49.468;11.200;2023-03-05T02:42:26;28.97;;;12.83;;
8007;SDS011;4049;49.468;11.200;2023-03-05T02:44:54;36.13;;;14.63;;
8007;SDS011;4049;49.468;11.200;2023-03-05T02:47:21;39.77;;;14.43;;
8007;SDS011;4049;49.468;11.200;2023-03-05T02:49:48;30.77;;;12.50;;
8007;SDS011;4049;49.468;11.200;2023-03-05T02:52:15;29.53;;;13.17;;
8007;SDS011;4049;49.468;11.200;2023-03-05T02:54:42;29.87;;;12.03;;
8007;SDS011;4049;49.468;11.200;2023-03-05T02:57:10;29.40;;;13.50;;
8007;SDS011;4049;49.468;11.200;2023-03-05T02:59:36;37.40;;;13.83;;
8007;SDS011;4049;49.468;11.200;2023-03-05T03:02:06;27.60;;;12.57;;
8007;SDS011;4049;49.468;11.200;2023-03-05T03:04:33;28.20;;;12.67;;
8007;SDS011;4049;49.468;11.200;2023-03-05T03:07:00;31.33;;;13.47;;
8007;SDS011;4049;49.468;11.200;2023-03-05T03:09:27;34.00;;;13.10;;
8007;SDS011;4049;49.468;11.200;2023-03-05T03:11:53;30.27;;;12.43;;
8007;SDS011;4049;49.468;11.200;2023-03-05T03:14:22;26.60;;;11.63;;
8007;SDS011;4049;49.468;11.200;2023-03-05T03:16:48;30.63;;;12.10;;
8007;SDS011;4049;49.468;11.200;2023-03-05T03:19:15;30.00;;;11.83;;
8007;SDS011;4049;49.468;11.200;2023-03-05T03:21:42;32.00;;;12.50;;
8007;SDS011;4049;49.468;11.200;2023-03-05T03:24:09;24.83;;;11.07;;
8007;SDS011;4049;49.468;11.200;2023-03-05T03:26:36;24.93;;;12.40;;
8007;SDS011;4049;49.468;11.200;2023-03-05T03:29:02;33.80;;;12.37;;
8007;SDS011;4049;49.468;11.200;2023-03-05T03:31:30;29.70;;;11.67;;
8007;SDS011;4049;49.468;11.200;2023-03-05T03:33:57;29.37;;;10.93;;
8007;SDS011;4049;49.468;11.200;2023-03-05T03:36:24;26.00;;;11.37;;
8007;SDS011;4049;49.468;11.200;2023-03-05T03:38:51;25.73;;;11.43;;
8007;SDS011;4049;49.468;11.200;2023-03-05T03:41:18;25.97;;;12.00;;
8007;SDS011;4049;49.468;11.200;2023-03-05T03:43:44;28.20;;;10.90;;
8007;SDS011;4049;49.468;11.200;2023-03-05T03:46:11;21.67;;;9.83;;
8007;SDS011;4049;49.468;11.200;2023-03-05T03:48:39;25.50;;;11.23;;
8007;SDS011;4049;49.468;11.200;2023-03-05T03:51:06;29.50;;;11.03;;
8007;SDS011;4049;49.468;11.200;2023-03-05T03:53:33;24.17;;;10.33;;
8007;SDS011;4049;49.468;11.200;2023-03-05T03:56:00;24.30;;;10.03;;
8007;SDS011;4049;49.468;11.200;2023-03-05T03:58:27;24.80;;;9.77;;
8007;SDS011;4049;49.468;11.200;2023-03-05T04:00:54;22.73;;;9.27;;
8007;SDS011;4049;49.468;11.200;2023-03-05T04:03:21;18.07;;;8.50;;
8007;SDS011;4049;49.468;11.200;2023-03-05T04:05:49;31.40;;;10.37;;
8007;SDS011;4049;49.468;11.200;2023-03-05T04:08:16;26.30;;;10.50;;
8007;SDS011;4049;49.468;11.200;2023-03-05T04:10:43;28.03;;;10.13;;
8007;SDS011;4049;49.468;11.200;2023-03-05T04:13:09;25.50;;;9.77;;
8007;SDS011;4049;49.468;11.200;2023-03-05T04:15:36;18.00;;;8.50;;
8007;SDS011;4049;49.468;11.200;2023-03-05T04:18:03;23.13;;;10.10;;
8007;SDS011;4049;49.468;11.200;2023-03-05T04:20:30;19.53;;;8.83;;
8007;SDS011;4049;49.468;11.200;2023-03-05T04:22:58;23.23;;;9.83;;
8007;SDS011;4049;49.468;11.200;2023-03-05T04:25:25;21.13;;;9.27;;
8007;SDS011;4049;49.468;11.200;2023-03-05T04:27:51;21.97;;;8.63;;
8007;SDS011;4049;49.468;11.200;2023-03-05T04:30:18;19.70;;;9.13;;
8007;SDS011;4049;49.468;11.200;2023-03-05T04:32:45;25.17;;;9.63;;
8007;SDS011;4049;49.468;11.200;2023-03-05T04:35:12;24.17;;;9.40;;
8007;SDS011;4049;49.468;11.200;2023-03-05T04:37:38;18.40;;;8.67;;
8007;SDS011;4049;49.468;11.200;2023-03-05T04:40:08;20.60;;;8.83;;
8007;SDS011;4049;49.468;11.200;2023-03-05T04:42:35;18.67;;;8.37;;
8007;SDS011;4049;49.468;11.200;2023-03-05T04:45:02;21.53;;;8.60;;
8007;SDS011;4049;49.468;11.200;2023-03-05T04:47:30;18.83;;;8.00;;
8007;SDS011;4049;49.468;11.200;2023-03-05T04:49:57;19.33;;;8.03;;
8007;SDS011;4049;49.468;11.200;2023-03-05T04:52:24;21.73;;;9.03;;
8007;SDS011;4049;49.468;11.200;2023-03-05T04:54:51;19.33;;;8.73;;
8007;SDS011;4049;49.468;11.200;2023-03-05T04:57:20;20.60;;;8.30;;
8007;SDS011;4049;49.468;11.200;2023-03-05T04:59:47;20.63;;;9.20;;
8007;SDS011;4049;49.468;11.200;2023-03-05T05:02:13;16.50;;;8.37;;
8007;SDS011;4049;49.468;11.200;2023-03-05T05:04:40;18.60;;;8.37;;
8007;SDS011;4049;49.468;11.200;2023-03-05T05:07:09;19.70;;;8.03;;
8007;SDS011;4049;49.468;11.200;2023-03-05T05:09:39;22.40;;;8.67;;
8007;SDS011;4049;49.468;11.200;2023-03-05T05:12:06;20.17;;;8.63;;
8007;SDS011;4049;49.468;11.200;2023-03-05T05:14:35;17.50;;;8.07;;
8007;SDS011;4049;49.468;11.200;2023-03-05T05:17:02;19.67;;;8.17;;
8007;SDS011;4049;49.468;11.200;2023-03-05T05:19:29;19.00;;;8.83;;
8007;SDS011;4049;49.468;11.200;2023-03-05T05:21:56;20.63;;;8.60;;
8007;SDS011;4049;49.468;11.200;2023-03-05T05:24:23;18.83;;;8.90;;
8007;SDS011;4049;49.468;11.200;2023-03-05T05:26:52;20.43;;;9.37;;
8007;SDS011;4049;49.468;11.200;2023-03-05T05:29:19;21.60;;;10.70;;
8007;SDS011;4049;49.468;11.200;2023-03-05T05:31:47;26.03;;;12.07;;
8007;SDS011;4049;49.468;11.200;2023-03-05T05:34:14;22.70;;;10.53;;
8007;SDS011;4049;49.468;11.200;2023-03-05T05:36:41;23.77;;;10.03;;
8007;SDS011;4049;49.468;11.200;2023-03-05T05:39:08;23.60;;;10.40;;
8007;SDS011;4049;49.468;11.200;2023-03-05T05:41:35;24.53;;;9.53;;
8007;SDS011;4049;49.468;11.200;2023-03-05T05:44:01;22.80;;;10.33;;
8007;SDS011;4049;49.468;11.200;2023-03-05T05:46:28;24.33;;;10.17;;
8007;SDS011;4049;49.468;11.200;2023-03-05T05:48:56;23.90;;;10.07;;
8007;SDS011;4049;49.468;11.200;2023-03-05T05:51:23;23.47;;;9.53;;
8007;SDS011;4049;49.468;11.200;2023-03-05T05:53:50;30.00;;;11.97;;
8007;SDS011;4049;49.468;11.200;2023-03-05T05:56:17;26.27;;;11.03;;
8007;SDS011;4049;49.468;11.200;2023-03-05T05:58:45;24.10;;;11.20;;
8007;SDS011;4049;49.468;11.200;2023-03-05T06:01:14;28.00;;;12.13;;
8007;SDS011;4049;49.468;11.200;2023-03-05T06:03:42;24.67;;;10.80;;
8007;SDS011;4049;49.468;11.200;2023-03-05T06:06:12;29.53;;;11.73;;
8007;SDS011;4049;49.468;11.200;2023-03-05T06:08:40;31.90;;;12.73;;
8007;SDS011;4049;49.468;11.200;2023-03-05T06:11:07;33.67;;;12.27;;
8007;SDS011;4049;49.468;11.200;2023-03-05T06:13:35;26.97;;;12.40;;
8007;SDS011;4049;49.468;11.200;2023-03-05T06:16:03;27.10;;;12.80;;
8007;SDS011;4049;49.468;11.200;2023-03-05T06:18:32;32.37;;;13.23;;
8007;SDS011;4049;49.468;11.200;2023-03-05T06:20:59;28.83;;;13.20;;
8007;SDS011;4049;49.468;11.200;2023-03-05T06:23:29;29.63;;;12.97;;
8007;SDS011;4049;49.468;11.200;2023-03-05T06:25:58;26.00;;;11.83;;
8007;SDS011;4049;49.468;11.200;2023-03-05T06:28:25;28.33;;;12.87;;
8007;SDS011;4049;49.468;11.200;2023-03-05T06:30:58;24.80;;;12.03;;
8007;SDS011;4049;49.468;11.200;2023-03-05T06:33:25;32.13;;;13.00;;
8007;SDS011;4049;49.468;11.200;2023-03-05T06:35:55;32.77;;;13.03;;
8007;SDS011;4049;49.468;11.200;2023-03-05T06:38:22;30.33;;;13.53;;
8007;SDS011;4049;49.468;11.200;2023-03-05T06:40:51;33.57;;;12.87;;
8007;SDS011;4049;49.468;11.200;2023-03-05T06:43:17;33.17;;;13.10;;
8007;SDS011;4049;49.468;11.200;2023-03-05T06:45:44;35.00;;;13.13;;
8007;SDS011;4049;49.468;11.200;2023-03-05T06:48:11;29.03;;;12.47;;
8007;SDS011;4049;49.468;11.200;2023-03-05T06:50:38;30.17;;;11.60;;
8007;SDS011;4049;49.468;11.200;2023-03-05T06:53:05;34.93;;;13.50;;
8007;SDS011;4049;49.468;11.200;2023-03-05T06:55:34;33.10;;;14.57;;
8007;SDS011;4049;49.468;11.200;2023-03-05T06:58:05;31.90;;;13.90;;
8007;SDS011;4049;49.468;11.200;2023-03-05T07:00:32;35.17;;;14.23;;
8007;SDS011;4049;49.468;11.200;2023-03-05T07:02:59;36.47;;;14.40;;
8007;SDS011;4049;49.468;11.200;2023-03-05T07:05:26;30.53;;;12.47;;
8007;SDS011;4049;49.468;11.200;2023-03-05T07:07:53;28.77;;;12.30;;
8007;SDS011;4049;49.468;11.200;2023-03-05T07:10:19;36.07;;;13.47;;
8007;SDS011;4049;49.468;11.200;2023-03-05T07:12:46;32.23;;;12.67;;
8007;SDS011;4049;49.468;11.200;2023-03-05T07:15:14;33.90;;;11.93;;
8007;SDS011;4049;49.468;11.200;2023-03-05T07:17:41;30.20;;;12.67;;
8007;SDS011;4049;49.468;11.200;2023-03-05T07:20:08;31.47;;;13.63;;
8007;SDS011;4049;49.468;11.200;2023-03-05T07:22:36;36.67;;;13.37;;
8007;SDS011;4049;49.468;11.200;2023-03-05T07:25:03;37.60;;;14.90;;
8007;SDS011;4049;49.468;11.200;2023-03-05T07:27:33;34.50;;;13.83;;
8007;SDS011;4049;49.468;11.200;2023-03-05T07:30:00;31.60;;;12.60;;
8007;SDS011;4049;49.468;11.200;2023-03-05T07:32:28;28.00;;;12.30;;
8007;SDS011;4049;49.468;11.200;2023-03-05T07:34:55;34.10;;;13.13;;
8007;SDS011;4049;49.468;11.200;2023-03-05T07:37:22;33.93;;;13.53;;
8007;SDS011;4049;49.468;11.200;2023-03-05T07:39:49;32.20;;;13.27;;
8007;SDS011;4049;49.468;11.200;2023-03-05T07:42:16;34.77;;;14.40;;
8007;SDS011;4049;49.468;11.200;2023-03-05T07:44:42;28.83;;;13.07;;
8007;SDS011;4049;49.468;11.200;2023-03-05T07:47:09;35.00;;;15.13;;
8007;SDS011;4049;49.468;11.200;2023-03-05T07:49:37;36.60;;;14.90;;
8007;SDS011;4049;49.468;11.200;2023-03-05T07:52:05;35.63;;;14.63;;
8007;SDS011;4049;49.468;11.200;2023-03-05T07:54:32;37.87;;;13.67;;
8007;SDS011;4049;49.468;11.200;2023-03-05T07:57:01;36.47;;;13.70;;
8007;SDS011;4049;49.468;11.200;2023-03-05T07:59:28;32.47;;;13.07;;
8007;SDS011;4049;49.468;11.200;2023-03-05T08:01:55;30.70;;;13.50;;
8007;SDS011;4049;49.468;11.200;2023-03-05T08:04:22;32.83;;;13.73;;
8007;SDS011;4049;49.468;11.200;2023-03-05T08:06:50;29.00;;;12.67;;
8007;SDS011;4049;49.468;11.200;2023-03-05T08:09:18;29.67;;;11.30;;
8007;SDS011;4049;49.468;11.200;2023-03-05T08:11:45;32.00;;;12.40;;
8007;SDS011;4049;49.468;11.200;2023-03-05T08:14:12;30.67;;;12.03;;
8007;SDS011;4049;49.468;11.200;2023-03-05T08:16:39;24.77;;;11.27;;
8007;SDS011;4049;49.468;11.200;2023-03-05T08:19:06;21.83;;;10.70;;
8007;SDS011;4049;49.468;11.200;2023-03-05T08:21:33;24.53;;;11.03;;
8007;SDS011;4049;49.468;11.200;2023-03-05T08:24:03;25.50;;;10.37;;
8007;SDS011;4049;49.468;11.200;2023-03-05T08:26:32;20.50;;;10.17;;
8007;SDS011;4049;49.468;11.200;2023-03-05T08:29:01;24.57;;;10.77;;
8007;SDS011;4049;49.468;11.200;2023-03-05T08:31:28;21.67;;;10.17;;
8007;SDS011;4049;49.468;11.200;2023-03-05T08:33:56;20.13;;;9.73;;
8007;SDS011;4049;49.468;11.200;2023-03-05T08:36:24;20.03;;;9.07;;
8007;SDS011;4049;49.468;11.200;2023-03-05T08:38:51;17.90;;;8.20;;
8007;SDS011;4049;49.468;11.200;2023-03-05T08:41:19;20.37;;;8.17;;
8007;SDS011;4049;49.468;11.200;2023-03-05T08:43:46;19.33;;;8.07;;
8007;SDS011;4049;49.468;11.200;2023-03-05T08:46:13;21.80;;;8.80;;
8007;SDS011;4049;49.468;11.200;2023-03-05T08:48:41;20.50;;;8.50;;
8007;SDS011;4049;49.468;11.200;2023-03-05T08:51:09;15.53;;;7.23;;
8007;SDS011;4049;49.468;11.200;2023-03-05T08:53:37;20.00;;;8.10;;
8007;SDS011;4049;49.468;11.200;2023-03-05T08:56:04;18.93;;;8.40;;
8007;SDS011;4049;49.468;11.200;2023-03-05T08:58:33;15.70;;;8.07;;
8007;SDS011;4049;49.468;11.200;2023-03-05T09:01:00;13.70;;;6.47;;
8007;SDS011;4049;49.468;11.200;2023-03-05T09:03:27;15.43;;;6.13;;
8007;SDS011;4049;49.468;11.200;2023-03-05T09:05:57;10.53;;;5.07;;
8007;SDS011;4049;49.468;11.200;2023-03-05T09:08:26;15.33;;;6.03;;
8007;SDS011;4049;49.468;11.200;2023-03-05T09:10:53;14.20;;;5.90;;
8007;SDS011;4049;49.468;11.200;2023-03-05T09:13:20;12.13;;;6.00;;
8007;SDS011;4049;49.468;11.200;2023-03-05T09:15:53;15.13;;;6.00;;
8007;SDS011;4049;49.468;11.200;2023-03-05T09:18:21;10.37;;;4.83;;
8007;SDS011;4049;49.468;11.200;2023-03-05T09:20:48;14.30;;;6.10;;
8007;SDS011;4049;49.468;11.200;2023-03-05T09:23:15;10.23;;;4.60;;
8007;SDS011;4049;49.468;11.200;2023-03-05T09:25:41;9.20;;;5.17;;
8007;SDS011;4049;49.468;11.200;2023-03-05T09:28:08;11.03;;;5.23;;
8007;SDS011;4049;49.468;11.200;2023-03-05T09:30:35;14.23;;;5.67;;
8007;SDS011;4049;49.468;11.200;2023-03-05T09:33:04;10.60;;;5.03;;
8007;SDS011;4049;49.468;11.200;2023-03-05T09:35:32;10.33;;;5.40;;
8007;SDS011;4049;49.468;11.200;2023-03-05T09:38:00;13.00;;;5.67;;
8007;SDS011;4049;49.468;11.200;2023-03-05T09:40:29;9.00;;;5.20;;
8007;SDS011;4049;49.468;11.200;2023-03-05T09:43:02;9.37;;;4.77;;
8007;SDS011;4049;49.468;11.200;2023-03-05T09:45:37;7.70;;;4.37;;
8007;SDS011;4049;49.468;11.200;2023-03-05T09:48:14;7.10;;;4.00;;
8007;SDS011;4049;49.468;11.200;2023-03-05T09:50:47;9.67;;;4.53;;
8007;SDS011;4049;49.468;11.200;2023-03-05T09:53:24;9.20;;;4.37;;
8007;SDS011;4049;49.468;11.200;2023-03-05T09:56:01;6.57;;;3.60;;
8007;SDS011;4049;49.468;11.200;2023-03-05T09:58:32;8.23;;;3.93;;
8007;SDS011;4049;49.468;11.200;2023-03-05T10:01:04;9.37;;;4.33;;
8007;SDS011;4049;49.468;11.200;2023-03-05T10:03:40;11.90;;;4.20;;
8007;SDS011;4049;49.468;11.200;2023-03-05T10:06:14;9.03;;;4.07;;
8007;SDS011;4049;49.468;11.200;2023-03-05T10:08:48;9.40;;;3.93;;
8007;SDS011;4049;49.468;11.200;2023-03-05T10:14:10;9.53;;;4.43;;
8007;SDS011;4049;49.468;11.200;2023-03-05T10:16:49;6.57;;;4.50;;
8007;SDS011;4049;49.468;11.200;2023-03-05T10:19:31;8.77;;;4.23;;
8007;SDS011;4049;49.468;11.200;2023-03-05T10:22:14;11.13;;;4.63;;
8007;SDS011;4049;49.468;11.200;2023-03-05T10:24:48;8.27;;;3.87;;
8007;SDS011;4049;49.468;11.200;2023-03-05T10:27:32;10.47;;;4.13;;
8007;SDS011;4049;49.468;11.200;2023-03-05T10:30:12;6.63;;;3.87;;
8007;SDS011;4049;49.468;11.200;2023-03-05T10:32:57;9.03;;;3.97;;
8007;SDS011;4049;49.468;11.200;2023-03-05T10:35:38;9.63;;;4.43;;
8007;SDS011;4049;49.468;11.200;2023-03-05T10:41:09;8.33;;;3.97;;
8007;SDS011;4049;49.468;11.200;2023-03-05T10:43:43;7.87;;;4.00;;
8007;SDS011;4049;49.468;11.200;2023-03-05T10:46:17;7.83;;;3.37;;
8007;SDS011;4049;49.468;11.200;2023-03-05T10:48:48;6.80;;;4.20;;
8007;SDS011;4049;49.468;11.200;2023-03-05T10:51:20;11.83;;;5.37;;
8007;SDS011;4049;49.468;11.200;2023-03-05T10:53:54;17.20;;;9.73;;
8007;SDS011;4049;49.468;11.200;2023-03-05T10:56:24;9.63;;;5.17;;
8007;SDS011;4049;49.468;11.200;2023-03-05T10:58:52;8.50;;;4.00;;
8007;SDS011;4049;49.468;11.200;2023-03-05T11:01:20;9.07;;;4.93;;
8007;SDS011;4049;49.468;11.200;2023-03-05T11:03:51;8.53;;;3.73;;
8007;SDS011;4049;49.468;11.200;2023-03-05T11:06:29;3.53;;;2.70;;
8007;SDS011;4049;49.468;11.200;2023-03-05T11:09:17;6.40;;;4.33;;
8007;SDS011;4049;49.468;11.200;2023-03-05T11:12:03;8.87;;;4.63;;
8007;SDS011;4049;49.468;11.200;2023-03-05T11:14:35;3.03;;;2.47;;
8007;SDS011;4049;49.468;11.200;2023-03-05T11:19:52;4.30;;;2.30;;
8007;SDS011;4049;49.468;11.200;2023-03-05T11:22:21;6.23;;;3.00;;
8007;SDS011;4049;49.468;11.200;2023-03-05T11:25:02;3.70;;;2.33;;
8007;SDS011;4049;49.468;11.200;2023-03-05T11:27:33;5.67;;;2.63;;
8007;SDS011;4049;49.468;11.200;2023-03-05T11:30:01;2.93;;;2.20;;
8007;SDS011;4049;49.468;11.200;2023-03-05T11:32:29;3.67;;;2.30;;
8007;SDS011;4049;49.468;11.200;2023-03-05T11:34:56;4.57;;;1.97;;
8007;SDS011;4049;49.468;11.200;2023-03-05T11:37:25;3.93;;;2.60;;
8007;SDS011;4049;49.468;11.200;2023-03-05T11:42:55;4.93;;;2.77;;
8007;SDS011;4049;49.468;11.200;2023-03-05T11:45:25;4.13;;;2.90;;
8007;SDS011;4049;49.468;11.200;2023-03-05T11:47:53;6.20;;;2.50;;
8007;SDS011;4049;49.468;11.200;2023-03-05T11:50:24;4.30;;;2.57;;
8007;SDS011;4049;49.468;11.200;2023-03-05T11:52:54;8.07;;;3.50;;
8007;SDS011;4049;49.468;11.200;2023-03-05T11:55:25;3.37;;;2.30;;
8007;SDS011;4049;49.468;11.200;2023-03-05T11:57:57;6.57;;;2.07;;
8007;SDS011;4049;49.468;11.200;2023-03-05T12:00:36;3.57;;;2.40;;
8007;SDS011;4049;49.468;11.200;2023-03-05T12:03:06;6.27;;;2.50;;
8007;SDS011;4049;49.468;11.200;2023-03-05T12:05:38;3.63;;;2.17;;
8007;SDS011;4049;49.468;11.200;2023-03-05T12:08:11;4.10;;;2.53;;
8007;SDS011;4049;49.468;11.200;2023-03-05T12:10:40;5.70;;;2.80;;
8007;SDS011;4049;49.468;11.200;2023-03-05T12:13:10;4.37;;;2.20;;
8007;SDS011;4049;49.468;11.200;2023-03-05T12:15:46;3.43;;;2.00;;
8007;SDS011;4049;49.468;11.200;2023-03-05T12:18:28;6.47;;;1.90;;
8007;SDS011;4049;49.468;11.200;2023-03-05T12:21:04;3.37;;;1.63;;
8007;SDS011;4049;49.468;11.200;2023-03-05T12:23:47;3.57;;;2.10;;
8007;SDS011;4049;49.468;11.200;2023-03-05T12:26:15;4.53;;;2.30;;
8007;SDS011;4049;49.468;11.200;2023-03-05T12:28:53;6.17;;;2.53;;
8007;SDS011;4049;49.468;11.200;2023-03-05T12:31:25;3.50;;;1.97;;
8007;SDS011;4049;49.468;11.200;2023-03-05T12:33:59;7.33;;;2.23;;
8007;SDS011;4049;49.468;11.200;2023-03-05T12:37:08;2.70;;;1.97;;
8007;SDS011;4049;49.468;11.200;2023-03-05T12:39:47;4.90;;;2.20;;
8007;SDS011;4049;49.468;11.200;2023-03-05T12:45:27;2.73;;;2.00;;
8007;SDS011;4049;49.468;11.200;2023-03-05T12:50:56;4.37;;;2.10;;
8007;SDS011;4049;49.468;11.200;2023-03-05T12:53:23;3.20;;;1.90;;
8007;SDS011;4049;49.468;11.200;2023-03-05T12:55:55;4.80;;;2.13;;
8007;SDS011;4049;49.468;11.200;2023-03-05T12:58:28;3.73;;;2.10;;
8007;SDS011;4049;49.468;11.200;2023-03-05T13:01:05;4.07;;;2.30;;
8007;SDS011;4049;49.468;11.200;2023-03-05T13:03:42;4.73;;;2.30;;
8007;SDS011;4049;49.468;11.200;2023-03-05T13:06:21;3.20;;;2.10;;
8007;SDS011;4049;49.468;11.200;2023-03-05T13:08:54;4.27;;;2.50;;
8007;SDS011;4049;49.468;11.200;2023-03-05T13:11:24;3.23;;;2.40;;
8007;SDS011;4049;49.468;11.200;2023-03-05T13:13:52;3.17;;;2.40;;
8007;SDS011;4049;49.468;11.200;2023-03-05T13:16:21;3.20;;;2.10;;
8007;SDS011;4049;49.468;11.200;2023-03-05T13:18:50;3.07;;;2.50;;
8007;SDS011;4049;49.468;11.200;2023-03-05T13:21:22;3.40;;;2.37;;
8007;SDS011;4049;49.468;11.200;2023-03-05T13:23:51;4.63;;;2.50;;
8007;SDS011;4049;49.468;11.200;2023-03-05T13:26:23;6.47;;;3.03;;
8007;SDS011;4049;49.468;11.200;2023-03-05T13:29:04;6.17;;;3.27;;
8007;SDS011;4049;49.468;11.200;2023-03-05T13:31:34;6.77;;;2.83;;
8007;SDS011;4049;49.468;11.200;2023-03-05T13:34:07;3.57;;;2.47;;
8007;SDS011;4049;49.468;11.200;2023-03-05T13:36:36;3.53;;;2.03;;
8007;SDS011;4049;49.468;11.200;2023-03-05T13:39:04;5.70;;;2.13;;
8007;SDS011;4049;49.468;11.200;2023-03-05T13:41:33;3.43;;;2.13;;
8007;SDS011;4049;49.468;11.200;2023-03-05T13:44:00;2.87;;;2.00;;
8007;SDS011;4049;49.468;11.200;2023-03-05T13:46:29;6.63;;;2.30;;
8007;SDS011;4049;49.468;11.200;2023-03-05T13:48:58;3.93;;;1.93;;
8007;SDS011;4049;49.468;11.200;2023-03-05T13:51:43;3.70;;;2.40;;
8007;SDS011;4049;49.468;11.200;2023-03-05T13:54:12;3.30;;;2.23;;
8007;SDS011;4049;49.468;11.200;2023-03-05T13:56:48;4.37;;;2.17;;
8007;SDS011;4049;49.468;11.200;2023-03-05T13:59:17;3.90;;;2.17;;
8007;SDS011;4049;49.468;11.200;2023-03-05T14:01:46;3.13;;;2.23;;
8007;SDS011;4049;49.468;11.200;2023-03-05T14:04:17;3.87;;;2.33;;
8007;SDS011;4049;49.468;11.200;2023-03-05T14:06:47;5.43;;;2.43;;
8007;SDS011;4049;49.468;11.200;2023-03-05T14:09:17;4.03;;;2.47;;
8007;SDS011;4049;49.468;11.200;2023-03-05T14:11:56;6.27;;;3.37;;
8007;SDS011;4049;49.468;11.200;2023-03-05T14:14:26;6.77;;;4.60;;
8007;SDS011;4049;49.468;11.200;2023-03-05T14:16:53;8.47;;;4.93;;
8007;SDS011;4049;49.468;11.200;2023-03-05T14:19:30;6.70;;;4.00;;
8007;SDS011;4049;49.468;11.200;2023-03-05T14:21:59;7.13;;;4.00;;
8007;SDS011;4049;49.468;11.200;2023-03-05T14:24:27;4.50;;;2.70;;
8007;SDS011;4049;49.468;11.200;2023-03-05T14:26:57;4.83;;;2.97;;
8007;SDS011;4049;49.468;11.200;2023-03-05T14:29:30;7.80;;;4.23;;
8007;SDS011;4049;49.468;11.200;2023-03-05T14:31:58;9.77;;;4.93;;
8007;SDS011;4049;49.468;11.200;2023-03-05T14:34:28;14.20;;;6.23;;
8007;SDS011;4049;49.468;11.200;2023-03-05T14:36:58;6.63;;;3.40;;
8007;SDS011;4049;49.468;11.200;2023-03-05T14:39:28;9.30;;;4.00;;
8007;SDS011;4049;49.468;11.200;2023-03-05T14:42:19;5.90;;;3.67;;
8007;SDS011;4049;49.468;11.200;2023-03-05T14:44:55;6.80;;;4.03;;
8007;SDS011;4049;49.468;11.200;2023-03-05T14:47:23;7.63;;;3.13;;
8007;SDS011;4049;49.468;11.200;2023-03-05T14:49:51;5.60;;;3.13;;
8007;SDS011;4049;49.468;11.200;2023-03-05T14:52:18;4.97;;;2.87;;
8007;SDS011;4049;49.468;11.200;2023-03-05T14:54:47;5.53;;;3.10;;
8007;SDS011;4049;49.468;11.200;2023-03-05T14:57:17;4.20;;;2.60;;
8007;SDS011;4049;49.468;11.200;2023-03-05T14:59:46;7.40;;;3.00;;
8007;SDS011;4049;49.468;11.200;2023-03-05T15:02:13;5.07;;;3.27;;
8007;SDS011;4049;49.468;11.200;2023-03-05T15:04:41;6.13;;;3.40;;
8007;SDS011;4049;49.468;11.200;2023-03-05T15:07:10;7.33;;;4.13;;
8007;SDS011;4049;49.468;11.200;2023-03-05T15:09:45;8.47;;;4.53;;
8007;SDS011;4049;49.468;11.200;2023-03-05T15:12:13;8.77;;;3.70;;
8007;SDS011;4049;49.468;11.200;2023-03-05T15:14:42;7.23;;;3.90;;
8007;SDS011;4049;49.468;11.200;2023-03-05T15:17:13;7.70;;;3.60;;